AirNav   Everest Fuels
 
 778 users online  

4IS0 Joan Graves Edwards Heliport
Anna, Illinois, USA

GOING TO ANNA?


FAA INFORMATION EFFECTIVE 26 MARCH 2020

Location

FAA Identifier: 4IS0
Lat/Long: 37-27-50.3100N 089-14-47.9900W
37-27.838500N 089-14.799833W
37.4639750,-89.2466639
(estimated)
Elevation: 624 ft. / 190 m (estimated)
Variation: 01E (1984)
Time zone: UTC -5 (UTC -6 during Standard Time)
Zip code: 62906

Heliport Operations

Heliport use: Private use, MEDICAL USE.
Activation date: 06/1984
Control tower: no
ARTCC: MEMPHIS CENTER
FSS: COLUMBIA FLIGHT SERVICE STATION
Attendance: CONTINUOUS
Wind indicator: lighted
Segmented circle: no
Lights: ER 618-833-4225.

Heliport Communications

WX ASOS at MDH (19 nm N): PHONE 618-529-1821

Nearby radio navigation aids

VOR radial/distance  VOR name  Freq  Var
MWAr209/20.7MARION VOR/DME110.4004E
CGIr050/21.0CAPE GIRARDEAU VOR/DME112.9002W
CNGr321/33.6CUNNINGHAM VOR/DME113.1003E

 
NDB name  Hdg/Dist  Freq  Var  ID
CAIRO357/24.239700ECIR -.-. .. .-.

Heliport Services

Runway Information

Helipad H1

Dimensions: 40 x 40 ft. / 12 x 12 m
Surface: concrete
Runway edge lights: PERI
Latitude: 37-27.838500N
Longitude: 089-14.799833W
Elevation: 624.0 ft.
Traffic pattern: leftleft

Heliport Ownership and Management from official FAA records

Ownership: Privately-owned
Owner: ANNA HOSPITAL CORP.
UNION COUNTY HOSP, 517 NORTH MAIN
ANNA, IL 62906
Phone 618-833-4511
Manager: JAMES R. FARRIS, CEO
517 NORTH MAIN ST
ANNA, IL 62906
Phone 618-833-4511
EXT. 4533

Additional Remarks

FOR CD CTC MEMPHIS ARTCC AT 901-368-8453.

Instrument Procedures

There are no published instrument procedures at 4IS0.

Some nearby airports with instrument procedures:

KMDH - Southern Illinois Airport (19 nm N)
KMWA - Veterans Airport of Southern Illinois (21 nm NE)
KCGI - Cape Girardeau Regional Airport (21 nm SW)
KCIR - Cairo Regional Airport (24 nm S)
KPJY - Pinckneyville-Du Quoin Airport (31 nm N)
 
Loc | Ops | Rwys | IFR | FBO | Links
Com | Nav | Svcs | Stats | Notes
Area around 4IS0 (Joan Graves Edwards Heliport)
 
Road maps at: MapQuest Bing Google
 
Aerial photo
No photo
 
Sectional chart

 
Airport distance calculator
Flying to Joan Graves Edwards Heliport? Find the distance to fly.

From to 4IS0

Sunrise and sunset
Times for 31-Mar-2020
 Local
(UTC-5)
 Zulu
(UTC)
Morning civil twilight06:1711:17
Sunrise06:4311:43
Sunset19:1800:18
Evening civil twilight19:4500:45

Current date and time
Zulu (UTC)  31-Mar-2020 23:36:54
Local (UTC-5)  31-Mar-2020 18:36:54
 
METAR
KMDH 
19nm N 
312252Z 35010KT 10SM FEW065 14/03 A2993 RMK AO2 SLP135 T01390033
KMWA 
20nm NE 
312245Z 01010KT 20SM BKN060 13/03 A2993
KCGI 
21nm SW 
312253Z AUTO 35012G18KT 10SM CLR 16/03 A2991 RMK AO2 SLP129 T01610033
KCIR 
24nm S 
312315Z AUTO 01008KT 10SM CLR 15/04 A2993 RMK AO2 T01500044
KM30 
29nm SE 
312315Z AUTO 35007G15KT 10SM BKN065 14/02 A2994 RMK AO2 T01400022
KPAH 
33nm SE 
312253Z 35014G22KT 10SM FEW065 14/02 A2992 RMK AO2 SLP130 T01440017
KSIK 
37nm SW 
312315Z AUTO 03007KT 10SM CLR 16/04 A2993 RMK AO2
KPCD 
38nm NW 
312315Z AUTO 02006KT 10SM CLR 15/04 A2992 RMK AO2 T01500035
TAF
KCGI 
21nm SW 
312000Z 3120/0118 32006G15KT P6SM BKN050 FM010200 35005KT P6SM BKN120 FM010800 VRB02KT P6SM SKC FM011400 02005KT P6SM SKC
NOTAMs
Click for the latest NOTAMs
NOTAMs are issued by the DoD/FAA and will open in a separate window not controlled by AirNav.

 

 
 

Would you like to see your business listed on this page?

 If your business provides an interesting product or service to pilots, flight crews, aircraft, or users of the Joan Graves Edwards Heliport, you should consider listing it here.  To start the listing process, click on the button below
 
Add a business
 

Other Pages about Joan Graves Edwards Heliport

Update a link
 
Copyright © AirNav, LLC. All rights reserved. Privacy Policy  Contact